sensor_id;sensor_type;location;lat;lon;timestamp;temperature;humidity
59973;DHT22;55298;-36.624;-64.282;2023-06-19T00:00:47;10.60;99.90
59973;DHT22;55298;-36.624;-64.282;2023-06-19T00:03:14;10.60;99.90
59973;DHT22;55298;-36.624;-64.282;2023-06-19T00:05:43;10.60;99.90
59973;DHT22;55298;-36.624;-64.282;2023-06-19T00:08:11;10.50;99.90
59973;DHT22;55298;-36.624;-64.282;2023-06-19T00:10:39;10.60;99.90
59973;DHT22;55298;-36.624;-64.282;2023-06-19T00:13:07;10.50;99.90
59973;DHT22;55298;-36.624;-64.282;2023-06-19T00:15:36;10.60;99.90
59973;DHT22;55298;-36.624;-64.282;2023-06-19T00:18:03;10.60;99.90
59973;DHT22;55298;-36.624;-64.282;2023-06-19T00:20:33;10.40;99.90
59973;DHT22;55298;-36.624;-64.282;2023-06-19T00:23:03;10.50;99.90
59973;DHT22;55298;-36.624;-64.282;2023-06-19T00:25:30;10.50;99.90
59973;DHT22;55298;-36.624;-64.282;2023-06-19T00:27:59;10.50;99.90
59973;DHT22;55298;-36.624;-64.282;2023-06-19T00:30:27;10.50;99.90
59973;DHT22;55298;-36.624;-64.282;2023-06-19T00:32:59;10.50;99.90
59973;DHT22;55298;-36.624;-64.282;2023-06-19T00:35:29;10.40;99.90
59973;DHT22;55298;-36.624;-64.282;2023-06-19T00:37:57;10.40;99.90
59973;DHT22;55298;-36.624;-64.282;2023-06-19T00:40:30;10.40;99.90
59973;DHT22;55298;-36.624;-64.282;2023-06-19T00:42:59;12.90;99.90
59973;DHT22;55298;-36.624;-64.282;2023-06-19T00:45:28;10.30;99.90
59973;DHT22;55298;-36.624;-64.282;2023-06-19T00:47:56;10.30;99.90
59973;DHT22;55298;-36.624;-64.282;2023-06-19T00:50:27;10.20;99.80
59973;DHT22;55298;-36.624;-64.282;2023-06-19T00:52:58;10.20;99.90
59973;DHT22;55298;-36.624;-64.282;2023-06-19T00:55:29;10.20;99.90
59973;DHT22;55298;-36.624;-64.282;2023-06-19T00:57:56;10.20;99.90
59973;DHT22;55298;-36.624;-64.282;2023-06-19T01:00:29;10.10;99.90
59973;DHT22;55298;-36.624;-64.282;2023-06-19T01:02:58;9.90;99.90
59973;DHT22;55298;-36.624;-64.282;2023-06-19T01:05:27;10.10;99.90
59973;DHT22;55298;-36.624;-64.282;2023-06-19T01:08:03;10.20;99.90
59973;DHT22;55298;-36.624;-64.282;2023-06-19T01:10:41;10.10;99.90
59973;DHT22;55298;-36.624;-64.282;2023-06-19T01:13:27;9.80;99.90
59973;DHT22;55298;-36.624;-64.282;2023-06-19T01:15:56;9.90;99.90
59973;DHT22;55298;-36.624;-64.282;2023-06-19T01:18:26;9.90;99.90
59973;DHT22;55298;-36.624;-64.282;2023-06-19T01:20:55;11.40;99.90
59973;DHT22;55298;-36.624;-64.282;2023-06-19T01:23:23;9.90;99.90
59973;DHT22;55298;-36.624;-64.282;2023-06-19T01:25:53;9.90;99.90
59973;DHT22;55298;-36.624;-64.282;2023-06-19T01:28:21;9.90;99.90
59973;DHT22;55298;-36.624;-64.282;2023-06-19T01:30:49;10.60;99.90
59973;DHT22;55298;-36.624;-64.282;2023-06-19T01:33:20;9.80;99.90
59973;DHT22;55298;-36.624;-64.282;2023-06-19T01:35:53;10.50;99.90
59973;DHT22;55298;-36.624;-64.282;2023-06-19T01:38:22;9.90;99.90
59973;DHT22;55298;-36.624;-64.282;2023-06-19T01:40:54;9.90;99.90
59973;DHT22;55298;-36.624;-64.282;2023-06-19T01:43:26;9.90;99.90
59973;DHT22;55298;-36.624;-64.282;2023-06-19T01:45:54;9.90;99.90
59973;DHT22;55298;-36.624;-64.282;2023-06-19T01:48:22;9.90;99.90
59973;DHT22;55298;-36.624;-64.282;2023-06-19T01:50:51;9.90;99.90
59973;DHT22;55298;-36.624;-64.282;2023-06-19T01:53:19;9.90;99.90
59973;DHT22;55298;-36.624;-64.282;2023-06-19T01:55:46;9.90;99.90
59973;DHT22;55298;-36.624;-64.282;2023-06-19T01:58:14;9.90;99.90
59973;DHT22;55298;-36.624;-64.282;2023-06-19T02:00:43;9.90;99.90
59973;DHT22;55298;-36.624;-64.282;2023-06-19T02:03:11;9.80;99.90
59973;DHT22;55298;-36.624;-64.282;2023-06-19T02:05:39;9.80;99.90
59973;DHT22;55298;-36.624;-64.282;2023-06-19T02:08:06;9.80;99.90
59973;DHT22;55298;-36.624;-64.282;2023-06-19T02:10:34;11.40;99.90
59973;DHT22;55298;-36.624;-64.282;2023-06-19T02:13:02;9.90;99.90
59973;DHT22;55298;-36.624;-64.282;2023-06-19T02:15:31;9.80;99.90
59973;DHT22;55298;-36.624;-64.282;2023-06-19T02:18:08;9.90;99.90
59973;DHT22;55298;-36.624;-64.282;2023-06-19T02:20:36;9.90;99.90
59973;DHT22;55298;-36.624;-64.282;2023-06-19T02:23:05;9.90;99.90
59973;DHT22;55298;-36.624;-64.282;2023-06-19T02:25:34;9.70;99.90
59973;DHT22;55298;-36.624;-64.282;2023-06-19T02:28:02;9.70;99.90
59973;DHT22;55298;-36.624;-64.282;2023-06-19T02:30:30;9.90;99.90
59973;DHT22;55298;-36.624;-64.282;2023-06-19T02:33:03;9.80;99.90
59973;DHT22;55298;-36.624;-64.282;2023-06-19T02:35:31;9.80;99.90
59973;DHT22;55298;-36.624;-64.282;2023-06-19T02:37:59;9.80;99.90
59973;DHT22;55298;-36.624;-64.282;2023-06-19T02:40:27;9.80;99.90
59973;DHT22;55298;-36.624;-64.282;2023-06-19T02:42:57;9.80;99.90
59973;DHT22;55298;-36.624;-64.282;2023-06-19T02:45:26;9.80;99.90
59973;DHT22;55298;-36.624;-64.282;2023-06-19T02:47:54;9.80;99.90
59973;DHT22;55298;-36.624;-64.282;2023-06-19T02:50:22;9.90;99.90
59973;DHT22;55298;-36.624;-64.282;2023-06-19T02:52:50;9.80;99.90
59973;DHT22;55298;-36.624;-64.282;2023-06-19T02:55:18;9.90;99.90
59973;DHT22;55298;-36.624;-64.282;2023-06-19T02:57:45;10.00;99.90
59973;DHT22;55298;-36.624;-64.282;2023-06-19T03:00:15;9.90;99.90
59973;DHT22;55298;-36.624;-64.282;2023-06-19T03:02:44;9.90;99.90
59973;DHT22;55298;-36.624;-64.282;2023-06-19T03:05:16;9.90;99.90
59973;DHT22;55298;-36.624;-64.282;2023-06-19T03:07:45;9.90;99.90
59973;DHT22;55298;-36.624;-64.282;2023-06-19T03:12:43;9.80;99.90
59973;DHT22;55298;-36.624;-64.282;2023-06-19T03:15:11;9.80;99.90
59973;DHT22;55298;-36.624;-64.282;2023-06-19T03:17:47;9.70;99.90
59973;DHT22;55298;-36.624;-64.282;2023-06-19T03:20:15;9.90;99.90
59973;DHT22;55298;-36.624;-64.282;2023-06-19T03:22:46;9.60;99.90
59973;DHT22;55298;-36.624;-64.282;2023-06-19T03:25:28;9.60;99.90
59973;DHT22;55298;-36.624;-64.282;2023-06-19T03:28:02;9.50;99.90
59973;DHT22;55298;-36.624;-64.282;2023-06-19T03:30:30;9.50;99.90
59973;DHT22;55298;-36.624;-64.282;2023-06-19T03:32:59;9.50;99.90
59973;DHT22;55298;-36.624;-64.282;2023-06-19T03:35:26;9.50;99.90
59973;DHT22;55298;-36.624;-64.282;2023-06-19T03:37:57;9.40;99.90
59973;DHT22;55298;-36.624;-64.282;2023-06-19T03:40:25;9.40;99.90
59973;DHT22;55298;-36.624;-64.282;2023-06-19T03:42:53;9.30;99.90
59973;DHT22;55298;-36.624;-64.282;2023-06-19T03:45:20;9.30;99.90
59973;DHT22;55298;-36.624;-64.282;2023-06-19T03:47:48;9.20;99.90
59973;DHT22;55298;-36.624;-64.282;2023-06-19T03:50:16;9.20;99.90
59973;DHT22;55298;-36.624;-64.282;2023-06-19T03:52:44;9.10;99.90
59973;DHT22;55298;-36.624;-64.282;2023-06-19T03:55:13;9.10;99.90
59973;DHT22;55298;-36.624;-64.282;2023-06-19T03:57:40;9.00;99.90
59973;DHT22;55298;-36.624;-64.282;2023-06-19T04:00:08;9.00;99.90
59973;DHT22;55298;-36.624;-64.282;2023-06-19T04:02:40;8.90;99.90
59973;DHT22;55298;-36.624;-64.282;2023-06-19T04:05:09;8.90;99.90
59973;DHT22;55298;-36.624;-64.282;2023-06-19T04:07:37;8.90;99.90
59973;DHT22;55298;-36.624;-64.282;2023-06-19T04:10:08;8.80;99.90
59973;DHT22;55298;-36.624;-64.282;2023-06-19T04:12:40;8.80;99.90
59973;DHT22;55298;-36.624;-64.282;2023-06-19T04:15:13;8.80;99.90
59973;DHT22;55298;-36.624;-64.282;2023-06-19T04:17:43;8.80;99.90
59973;DHT22;55298;-36.624;-64.282;2023-06-19T04:20:17;8.80;99.90
59973;DHT22;55298;-36.624;-64.282;2023-06-19T04:22:48;8.70;99.90
59973;DHT22;55298;-36.624;-64.282;2023-06-19T04:25:41;8.80;99.90
59973;DHT22;55298;-36.624;-64.282;2023-06-19T04:28:09;8.70;99.90
59973;DHT22;55298;-36.624;-64.282;2023-06-19T04:30:36;8.70;99.90
59973;DHT22;55298;-36.624;-64.282;2023-06-19T04:33:06;8.70;99.90
59973;DHT22;55298;-36.624;-64.282;2023-06-19T04:35:35;8.70;99.90
59973;DHT22;55298;-36.624;-64.282;2023-06-19T04:38:07;8.70;99.90
59973;DHT22;55298;-36.624;-64.282;2023-06-19T04:40:35;8.70;99.90
59973;DHT22;55298;-36.624;-64.282;2023-06-19T04:43:03;8.70;99.90
59973;DHT22;55298;-36.624;-64.282;2023-06-19T04:45:32;8.50;99.90
59973;DHT22;55298;-36.624;-64.282;2023-06-19T04:48:00;8.70;99.90
59973;DHT22;55298;-36.624;-64.282;2023-06-19T04:50:30;8.80;99.90
59973;DHT22;55298;-36.624;-64.282;2023-06-19T04:52:57;8.80;99.90
59973;DHT22;55298;-36.624;-64.282;2023-06-19T04:55:25;8.80;99.90
59973;DHT22;55298;-36.624;-64.282;2023-06-19T04:57:53;9.50;99.90
59973;DHT22;55298;-36.624;-64.282;2023-06-19T05:00:21;8.60;99.90
59973;DHT22;55298;-36.624;-64.282;2023-06-19T05:02:50;8.80;99.90
59973;DHT22;55298;-36.624;-64.282;2023-06-19T05:05:18;8.90;99.90
59973;DHT22;55298;-36.624;-64.282;2023-06-19T05:07:47;8.90;99.90
59973;DHT22;55298;-36.624;-64.282;2023-06-19T05:10:15;8.80;99.90
59973;DHT22;55298;-36.624;-64.282;2023-06-19T05:12:43;8.90;99.90
59973;DHT22;55298;-36.624;-64.282;2023-06-19T05:15:11;8.70;99.90
59973;DHT22;55298;-36.624;-64.282;2023-06-19T05:17:39;8.90;99.90
59973;DHT22;55298;-36.624;-64.282;2023-06-19T05:20:07;8.90;99.90
59973;DHT22;55298;-36.624;-64.282;2023-06-19T05:22:35;8.80;99.90
59973;DHT22;55298;-36.624;-64.282;2023-06-19T05:25:03;8.70;99.90
59973;DHT22;55298;-36.624;-64.282;2023-06-19T05:27:31;8.80;99.90
59973;DHT22;55298;-36.624;-64.282;2023-06-19T05:29:59;8.80;99.90
59973;DHT22;55298;-36.624;-64.282;2023-06-19T05:32:27;8.80;99.90
59973;DHT22;55298;-36.624;-64.282;2023-06-19T05:34:54;8.80;99.90
59973;DHT22;55298;-36.624;-64.282;2023-06-19T05:37:22;8.70;99.90
59973;DHT22;55298;-36.624;-64.282;2023-06-19T05:39:50;8.60;99.90
59973;DHT22;55298;-36.624;-64.282;2023-06-19T05:42:18;8.60;99.90
59973;DHT22;55298;-36.624;-64.282;2023-06-19T05:44:45;8.60;99.90
59973;DHT22;55298;-36.624;-64.282;2023-06-19T05:47:13;8.40;99.90
59973;DHT22;55298;-36.624;-64.282;2023-06-19T05:49:43;8.60;99.90
59973;DHT22;55298;-36.624;-64.282;2023-06-19T05:52:11;8.50;99.90
59973;DHT22;55298;-36.624;-64.282;2023-06-19T05:54:39;8.50;99.90
59973;DHT22;55298;-36.624;-64.282;2023-06-19T05:57:07;7.20;99.90
59973;DHT22;55298;-36.624;-64.282;2023-06-19T05:59:36;8.50;99.90
59973;DHT22;55298;-36.624;-64.282;2023-06-19T06:02:08;8.50;99.90
59973;DHT22;55298;-36.624;-64.282;2023-06-19T06:04:35;8.30;99.90
59973;DHT22;55298;-36.624;-64.282;2023-06-19T06:07:04;8.40;99.90
59973;DHT22;55298;-36.624;-64.282;2023-06-19T06:09:32;8.40;99.90
59973;DHT22;55298;-36.624;-64.282;2023-06-19T06:12:00;8.50;99.90
59973;DHT22;55298;-36.624;-64.282;2023-06-19T06:14:28;8.50;99.90
59973;DHT22;55298;-36.624;-64.282;2023-06-19T06:16:56;8.50;99.90
59973;DHT22;55298;-36.624;-64.282;2023-06-19T06:19:23;8.50;99.90
59973;DHT22;55298;-36.624;-64.282;2023-06-19T06:21:51;8.50;99.90
59973;DHT22;55298;-36.624;-64.282;2023-06-19T06:24:19;8.60;99.90
59973;DHT22;55298;-36.624;-64.282;2023-06-19T06:26:47;8.50;99.90
59973;DHT22;55298;-36.624;-64.282;2023-06-19T06:29:14;8.60;99.90
59973;DHT22;55298;-36.624;-64.282;2023-06-19T06:31:45;8.40;99.90
59973;DHT22;55298;-36.624;-64.282;2023-06-19T06:34:14;8.30;99.90
59973;DHT22;55298;-36.624;-64.282;2023-06-19T06:36:42;8.20;99.90
59973;DHT22;55298;-36.624;-64.282;2023-06-19T06:39:10;8.30;99.90
59973;DHT22;55298;-36.624;-64.282;2023-06-19T06:41:38;8.20;99.90
59973;DHT22;55298;-36.624;-64.282;2023-06-19T06:44:06;8.20;99.90
59973;DHT22;55298;-36.624;-64.282;2023-06-19T06:46:33;8.20;99.90
59973;DHT22;55298;-36.624;-64.282;2023-06-19T06:49:01;8.20;99.90
59973;DHT22;55298;-36.624;-64.282;2023-06-19T06:51:29;8.20;99.90
59973;DHT22;55298;-36.624;-64.282;2023-06-19T06:53:56;8.10;99.90
59973;DHT22;55298;-36.624;-64.282;2023-06-19T06:56:24;8.20;99.90
59973;DHT22;55298;-36.624;-64.282;2023-06-19T06:58:52;8.20;99.90
59973;DHT22;55298;-36.624;-64.282;2023-06-19T07:01:20;8.10;99.90
59973;DHT22;55298;-36.624;-64.282;2023-06-19T07:03:48;8.20;99.90
59973;DHT22;55298;-36.624;-64.282;2023-06-19T07:06:15;8.10;99.90
59973;DHT22;55298;-36.624;-64.282;2023-06-19T07:08:43;9.30;99.90
59973;DHT22;55298;-36.624;-64.282;2023-06-19T07:11:14;8.20;99.90
59973;DHT22;55298;-36.624;-64.282;2023-06-19T07:13:42;8.10;99.90
59973;DHT22;55298;-36.624;-64.282;2023-06-19T07:16:09;8.10;99.90
59973;DHT22;55298;-36.624;-64.282;2023-06-19T07:21:12;8.10;99.90
59973;DHT22;55298;-36.624;-64.282;2023-06-19T07:23:40;8.10;99.90
59973;DHT22;55298;-36.624;-64.282;2023-06-19T07:26:09;8.10;99.90
59973;DHT22;55298;-36.624;-64.282;2023-06-19T07:28:36;8.00;99.90
59973;DHT22;55298;-36.624;-64.282;2023-06-19T07:31:04;8.00;99.90
59973;DHT22;55298;-36.624;-64.282;2023-06-19T07:33:32;7.90;99.90
59973;DHT22;55298;-36.624;-64.282;2023-06-19T07:36:00;7.90;99.90
59973;DHT22;55298;-36.624;-64.282;2023-06-19T07:38:29;8.20;99.90
59973;DHT22;55298;-36.624;-64.282;2023-06-19T07:40:57;7.80;99.90
59973;DHT22;55298;-36.624;-64.282;2023-06-19T07:43:25;7.80;99.90
59973;DHT22;55298;-36.624;-64.282;2023-06-19T07:45:53;7.80;99.90
59973;DHT22;55298;-36.624;-64.282;2023-06-19T07:48:21;7.80;99.90
59973;DHT22;55298;-36.624;-64.282;2023-06-19T07:50:50;7.80;99.90
59973;DHT22;55298;-36.624;-64.282;2023-06-19T07:53:19;7.80;99.90
59973;DHT22;55298;-36.624;-64.282;2023-06-19T07:55:49;7.80;99.90
59973;DHT22;55298;-36.624;-64.282;2023-06-19T07:58:17;7.70;99.90
59973;DHT22;55298;-36.624;-64.282;2023-06-19T08:00:45;7.70;99.90
59973;DHT22;55298;-36.624;-64.282;2023-06-19T08:03:12;7.70;99.90
59973;DHT22;55298;-36.624;-64.282;2023-06-19T08:05:40;7.60;99.90
59973;DHT22;55298;-36.624;-64.282;2023-06-19T08:08:09;7.60;99.90
59973;DHT22;55298;-36.624;-64.282;2023-06-19T08:10:37;7.60;99.90
59973;DHT22;55298;-36.624;-64.282;2023-06-19T08:13:05;7.50;99.90
59973;DHT22;55298;-36.624;-64.282;2023-06-19T08:15:32;7.50;99.90
59973;DHT22;55298;-36.624;-64.282;2023-06-19T08:18:00;7.50;99.90
59973;DHT22;55298;-36.624;-64.282;2023-06-19T08:20:29;7.40;99.90
59973;DHT22;55298;-36.624;-64.282;2023-06-19T08:22:56;7.40;99.90
59973;DHT22;55298;-36.624;-64.282;2023-06-19T08:25:24;7.40;99.90
59973;DHT22;55298;-36.624;-64.282;2023-06-19T08:27:52;7.40;99.90
59973;DHT22;55298;-36.624;-64.282;2023-06-19T08:30:20;9.30;99.90
59973;DHT22;55298;-36.624;-64.282;2023-06-19T08:32:48;7.30;99.90
59973;DHT22;55298;-36.624;-64.282;2023-06-19T08:35:16;7.30;99.90
59973;DHT22;55298;-36.624;-64.282;2023-06-19T08:37:45;7.20;99.90
59973;DHT22;55298;-36.624;-64.282;2023-06-19T08:40:12;8.20;99.90
59973;DHT22;55298;-36.624;-64.282;2023-06-19T08:42:40;7.20;99.90
59973;DHT22;55298;-36.624;-64.282;2023-06-19T08:45:10;7.10;99.90
59973;DHT22;55298;-36.624;-64.282;2023-06-19T08:47:38;7.00;99.90
59973;DHT22;55298;-36.624;-64.282;2023-06-19T08:50:06;7.00;99.90
59973;DHT22;55298;-36.624;-64.282;2023-06-19T08:52:34;6.80;99.90
59973;DHT22;55298;-36.624;-64.282;2023-06-19T08:55:01;6.30;99.90
59973;DHT22;55298;-36.624;-64.282;2023-06-19T08:57:38;6.60;99.90
59973;DHT22;55298;-36.624;-64.282;2023-06-19T09:00:07;6.70;99.90
59973;DHT22;55298;-36.624;-64.282;2023-06-19T09:02:42;6.60;99.90
59973;DHT22;55298;-36.624;-64.282;2023-06-19T09:05:16;6.50;99.90
59973;DHT22;55298;-36.624;-64.282;2023-06-19T09:07:46;6.50;99.90
59973;DHT22;55298;-36.624;-64.282;2023-06-19T09:10:21;6.60;99.90
59973;DHT22;55298;-36.624;-64.282;2023-06-19T09:13:00;6.50;99.90
59973;DHT22;55298;-36.624;-64.282;2023-06-19T09:15:30;6.50;99.90
59973;DHT22;55298;-36.624;-64.282;2023-06-19T09:18:03;6.50;99.90
59973;DHT22;55298;-36.624;-64.282;2023-06-19T09:20:33;6.50;99.90
59973;DHT22;55298;-36.624;-64.282;2023-06-19T09:23:01;6.50;99.90
59973;DHT22;55298;-36.624;-64.282;2023-06-19T09:25:30;6.60;99.90
59973;DHT22;55298;-36.624;-64.282;2023-06-19T09:27:58;6.50;99.90
59973;DHT22;55298;-36.624;-64.282;2023-06-19T09:30:26;6.50;99.90
59973;DHT22;55298;-36.624;-64.282;2023-06-19T09:32:54;6.50;99.90
59973;DHT22;55298;-36.624;-64.282;2023-06-19T09:35:21;6.50;99.90
59973;DHT22;55298;-36.624;-64.282;2023-06-19T09:37:49;6.50;99.90
59973;DHT22;55298;-36.624;-64.282;2023-06-19T09:40:19;6.50;99.90
59973;DHT22;55298;-36.624;-64.282;2023-06-19T09:42:48;6.50;99.90
59973;DHT22;55298;-36.624;-64.282;2023-06-19T09:45:22;6.50;99.90
59973;DHT22;55298;-36.624;-64.282;2023-06-19T09:47:52;6.60;99.90
59973;DHT22;55298;-36.624;-64.282;2023-06-19T09:50:23;6.70;99.90
59973;DHT22;55298;-36.624;-64.282;2023-06-19T09:52:55;6.80;99.90
59973;DHT22;55298;-36.624;-64.282;2023-06-19T09:55:25;6.90;99.90
59973;DHT22;55298;-36.624;-64.282;2023-06-19T09:57:56;6.90;99.90
59973;DHT22;55298;-36.624;-64.282;2023-06-19T10:00:24;7.00;99.90
59973;DHT22;55298;-36.624;-64.282;2023-06-19T10:02:57;7.00;99.90
59973;DHT22;55298;-36.624;-64.282;2023-06-19T10:05:33;7.10;99.90
59973;DHT22;55298;-36.624;-64.282;2023-06-19T10:08:04;7.10;99.90
59973;DHT22;55298;-36.624;-64.282;2023-06-19T10:10:32;7.10;99.90
59973;DHT22;55298;-36.624;-64.282;2023-06-19T10:13:13;9.70;99.90
59973;DHT22;55298;-36.624;-64.282;2023-06-19T10:15:43;7.10;99.90
59973;DHT22;55298;-36.624;-64.282;2023-06-19T10:18:18;6.90;99.90
59973;DHT22;55298;-36.624;-64.282;2023-06-19T10:20:47;7.00;99.90
59973;DHT22;55298;-36.624;-64.282;2023-06-19T10:23:19;7.10;99.90
59973;DHT22;55298;-36.624;-64.282;2023-06-19T10:25:48;7.10;99.90
59973;DHT22;55298;-36.624;-64.282;2023-06-19T10:28:18;7.00;99.90
59973;DHT22;55298;-36.624;-64.282;2023-06-19T10:33:39;6.60;99.90
59973;DHT22;55298;-36.624;-64.282;2023-06-19T10:36:17;7.00;99.90
59973;DHT22;55298;-36.624;-64.282;2023-06-19T10:38:46;7.00;99.90
59973;DHT22;55298;-36.624;-64.282;2023-06-19T10:41:17;7.00;99.90
59973;DHT22;55298;-36.624;-64.282;2023-06-19T10:43:57;7.10;99.90
59973;DHT22;55298;-36.624;-64.282;2023-06-19T10:46:32;7.10;99.90
59973;DHT22;55298;-36.624;-64.282;2023-06-19T10:49:01;7.10;99.90
59973;DHT22;55298;-36.624;-64.282;2023-06-19T10:51:35;7.20;99.90
59973;DHT22;55298;-36.624;-64.282;2023-06-19T10:54:03;7.20;99.90
59973;DHT22;55298;-36.624;-64.282;2023-06-19T10:56:31;7.40;99.90
59973;DHT22;55298;-36.624;-64.282;2023-06-19T10:59:05;7.20;99.90
59973;DHT22;55298;-36.624;-64.282;2023-06-19T11:01:35;7.40;99.90
59973;DHT22;55298;-36.624;-64.282;2023-06-19T11:04:06;7.30;99.90
59973;DHT22;55298;-36.624;-64.282;2023-06-19T11:06:35;7.20;99.90
59973;DHT22;55298;-36.624;-64.282;2023-06-19T11:09:04;7.30;99.90
59973;DHT22;55298;-36.624;-64.282;2023-06-19T11:11:38;7.20;99.90
59973;DHT22;55298;-36.624;-64.282;2023-06-19T11:14:09;7.20;99.90
59973;DHT22;55298;-36.624;-64.282;2023-06-19T11:16:42;7.40;99.90
59973;DHT22;55298;-36.624;-64.282;2023-06-19T11:19:17;7.40;99.90
59973;DHT22;55298;-36.624;-64.282;2023-06-19T11:21:48;7.40;99.90
59973;DHT22;55298;-36.624;-64.282;2023-06-19T11:24:18;7.30;99.90
59973;DHT22;55298;-36.624;-64.282;2023-06-19T11:26:49;7.40;99.90
59973;DHT22;55298;-36.624;-64.282;2023-06-19T11:29:22;7.50;99.90
59973;DHT22;55298;-36.624;-64.282;2023-06-19T11:31:50;7.50;99.90
59973;DHT22;55298;-36.624;-64.282;2023-06-19T11:34:30;7.50;99.90
59973;DHT22;55298;-36.624;-64.282;2023-06-19T11:36:58;7.50;99.90
59973;DHT22;55298;-36.624;-64.282;2023-06-19T11:39:28;7.40;99.90
59973;DHT22;55298;-36.624;-64.282;2023-06-19T11:42:00;7.20;99.90
59973;DHT22;55298;-36.624;-64.282;2023-06-19T11:44:28;7.40;99.90
59973;DHT22;55298;-36.624;-64.282;2023-06-19T11:47:00;8.40;99.90
59973;DHT22;55298;-36.624;-64.282;2023-06-19T11:49:35;7.40;99.90
59973;DHT22;55298;-36.624;-64.282;2023-06-19T11:52:03;7.40;99.90
59973;DHT22;55298;-36.624;-64.282;2023-06-19T11:54:30;7.40;99.90
59973;DHT22;55298;-36.624;-64.282;2023-06-19T11:56:58;7.30;99.90
59973;DHT22;55298;-36.624;-64.282;2023-06-19T11:59:27;7.30;99.90
59973;DHT22;55298;-36.624;-64.282;2023-06-19T12:01:57;7.30;99.90
59973;DHT22;55298;-36.624;-64.282;2023-06-19T12:04:27;8.50;99.90
59973;DHT22;55298;-36.624;-64.282;2023-06-19T12:06:56;7.40;99.90
59973;DHT22;55298;-36.624;-64.282;2023-06-19T12:09:25;7.30;99.90
59973;DHT22;55298;-36.624;-64.282;2023-06-19T12:11:53;7.40;99.90
59973;DHT22;55298;-36.624;-64.282;2023-06-19T12:14:20;10.90;99.90
59973;DHT22;55298;-36.624;-64.282;2023-06-19T12:16:49;7.40;99.90
59973;DHT22;55298;-36.624;-64.282;2023-06-19T12:19:17;7.90;99.90
59973;DHT22;55298;-36.624;-64.282;2023-06-19T12:21:44;7.60;99.90
59973;DHT22;55298;-36.624;-64.282;2023-06-19T12:24:12;7.40;99.90
59973;DHT22;55298;-36.624;-64.282;2023-06-19T12:26:40;7.40;99.90
59973;DHT22;55298;-36.624;-64.282;2023-06-19T12:29:08;7.50;99.90
59973;DHT22;55298;-36.624;-64.282;2023-06-19T12:31:37;7.60;99.90
59973;DHT22;55298;-36.624;-64.282;2023-06-19T12:34:05;7.60;99.90
59973;DHT22;55298;-36.624;-64.282;2023-06-19T12:36:34;7.80;99.90
59973;DHT22;55298;-36.624;-64.282;2023-06-19T12:39:05;7.60;99.90
59973;DHT22;55298;-36.624;-64.282;2023-06-19T12:41:41;8.90;99.90
59973;DHT22;55298;-36.624;-64.282;2023-06-19T12:44:09;7.60;99.90
59973;DHT22;55298;-36.624;-64.282;2023-06-19T12:46:37;7.70;99.90
59973;DHT22;55298;-36.624;-64.282;2023-06-19T12:49:06;7.70;99.90
59973;DHT22;55298;-36.624;-64.282;2023-06-19T12:51:36;7.70;99.90
59973;DHT22;55298;-36.624;-64.282;2023-06-19T12:54:04;7.70;99.90
59973;DHT22;55298;-36.624;-64.282;2023-06-19T12:56:33;7.70;99.90
59973;DHT22;55298;-36.624;-64.282;2023-06-19T12:59:03;7.80;99.90
59973;DHT22;55298;-36.624;-64.282;2023-06-19T13:01:31;7.80;99.90
59973;DHT22;55298;-36.624;-64.282;2023-06-19T13:03:58;7.80;99.90
59973;DHT22;55298;-36.624;-64.282;2023-06-19T13:06:26;7.90;99.90
59973;DHT22;55298;-36.624;-64.282;2023-06-19T13:08:55;8.00;99.90
59973;DHT22;55298;-36.624;-64.282;2023-06-19T13:11:26;8.10;99.90
59973;DHT22;55298;-36.624;-64.282;2023-06-19T13:14:04;8.30;99.90
59973;DHT22;55298;-36.624;-64.282;2023-06-19T13:16:44;8.30;99.90
59973;DHT22;55298;-36.624;-64.282;2023-06-19T13:19:14;8.30;99.90
59973;DHT22;55298;-36.624;-64.282;2023-06-19T13:21:42;8.40;99.90
59973;DHT22;55298;-36.624;-64.282;2023-06-19T13:24:10;8.40;99.90
59973;DHT22;55298;-36.624;-64.282;2023-06-19T13:26:38;8.50;99.90
59973;DHT22;55298;-36.624;-64.282;2023-06-19T13:29:06;8.40;99.90
59973;DHT22;55298;-36.624;-64.282;2023-06-19T13:31:34;8.50;99.90
59973;DHT22;55298;-36.624;-64.282;2023-06-19T13:34:03;8.50;99.90
59973;DHT22;55298;-36.624;-64.282;2023-06-19T13:36:32;8.40;99.90
59973;DHT22;55298;-36.624;-64.282;2023-06-19T13:39:00;8.50;99.90
59973;DHT22;55298;-36.624;-64.282;2023-06-19T13:44:01;8.50;99.90
59973;DHT22;55298;-36.624;-64.282;2023-06-19T13:46:29;8.50;99.90
59973;DHT22;55298;-36.624;-64.282;2023-06-19T13:48:58;8.50;99.90
59973;DHT22;55298;-36.624;-64.282;2023-06-19T13:51:27;8.60;99.90
59973;DHT22;55298;-36.624;-64.282;2023-06-19T13:53:55;8.70;99.90
59973;DHT22;55298;-36.624;-64.282;2023-06-19T13:56:23;8.80;99.90
59973;DHT22;55298;-36.624;-64.282;2023-06-19T13:58:51;8.80;99.90
59973;DHT22;55298;-36.624;-64.282;2023-06-19T14:01:19;8.80;99.90
59973;DHT22;55298;-36.624;-64.282;2023-06-19T14:03:47;8.70;99.90
59973;DHT22;55298;-36.624;-64.282;2023-06-19T14:06:15;8.70;99.90
59973;DHT22;55298;-36.624;-64.282;2023-06-19T14:08:47;8.80;99.90
59973;DHT22;55298;-36.624;-64.282;2023-06-19T14:11:19;8.90;99.90
59973;DHT22;55298;-36.624;-64.282;2023-06-19T14:13:47;8.90;99.90
59973;DHT22;55298;-36.624;-64.282;2023-06-19T14:16:16;9.00;99.90
59973;DHT22;55298;-36.624;-64.282;2023-06-19T14:18:44;9.10;99.90
59973;DHT22;55298;-36.624;-64.282;2023-06-19T14:21:12;11.20;99.90
59973;DHT22;55298;-36.624;-64.282;2023-06-19T14:23:40;9.10;99.90
59973;DHT22;55298;-36.624;-64.282;2023-06-19T14:26:11;9.10;99.90
59973;DHT22;55298;-36.624;-64.282;2023-06-19T14:28:39;9.10;99.90
59973;DHT22;55298;-36.624;-64.282;2023-06-19T14:31:08;9.00;99.90
59973;DHT22;55298;-36.624;-64.282;2023-06-19T14:33:37;8.90;99.90
59973;DHT22;55298;-36.624;-64.282;2023-06-19T14:36:06;9.10;99.90
59973;DHT22;55298;-36.624;-64.282;2023-06-19T14:41:02;9.10;99.90
59973;DHT22;55298;-36.624;-64.282;2023-06-19T14:43:31;9.10;99.90
59973;DHT22;55298;-36.624;-64.282;2023-06-19T14:45:59;9.20;99.90
59973;DHT22;55298;-36.624;-64.282;2023-06-19T14:48:27;9.30;99.90
59973;DHT22;55298;-36.624;-64.282;2023-06-19T14:50:56;9.20;99.90
59973;DHT22;55298;-36.624;-64.282;2023-06-19T14:53:24;9.30;99.90
59973;DHT22;55298;-36.624;-64.282;2023-06-19T14:55:52;9.40;99.90
59973;DHT22;55298;-36.624;-64.282;2023-06-19T14:58:23;9.30;99.90
59973;DHT22;55298;-36.624;-64.282;2023-06-19T15:01:05;9.30;99.90
59973;DHT22;55298;-36.624;-64.282;2023-06-19T15:03:33;9.40;99.90
59973;DHT22;55298;-36.624;-64.282;2023-06-19T15:06:03;9.30;99.90
59973;DHT22;55298;-36.624;-64.282;2023-06-19T15:08:30;9.40;99.90
59973;DHT22;55298;-36.624;-64.282;2023-06-19T15:10:58;9.40;99.90
59973;DHT22;55298;-36.624;-64.282;2023-06-19T15:13:26;9.60;99.90
59973;DHT22;55298;-36.624;-64.282;2023-06-19T15:15:54;9.60;99.90
59973;DHT22;55298;-36.624;-64.282;2023-06-19T15:18:21;9.60;99.90
59973;DHT22;55298;-36.624;-64.282;2023-06-19T15:20:49;9.60;99.90
59973;DHT22;55298;-36.624;-64.282;2023-06-19T15:23:18;9.50;99.90
59973;DHT22;55298;-36.624;-64.282;2023-06-19T15:25:46;9.60;99.90